sensor_id;sensor_type;location;lat;lon;timestamp;P1;durP1;ratioP1;P2;durP2;ratioP2
17604;SDS011;8921;50.964;6.800;2023-12-20T00:00:09;14.33;;;10.00;;
17604;SDS011;8921;50.964;6.800;2023-12-20T00:02:37;14.20;;;9.57;;
17604;SDS011;8921;50.964;6.800;2023-12-20T00:05:06;11.27;;;9.07;;
17604;SDS011;8921;50.964;6.800;2023-12-20T00:07:34;14.27;;;10.27;;
17604;SDS011;8921;50.964;6.800;2023-12-20T00:10:02;12.57;;;8.83;;
17604;SDS011;8921;50.964;6.800;2023-12-20T00:12:31;14.43;;;8.33;;
17604;SDS011;8921;50.964;6.800;2023-12-20T00:14:59;13.60;;;9.20;;
17604;SDS011;8921;50.964;6.800;2023-12-20T00:17:27;12.40;;;8.03;;
17604;SDS011;8921;50.964;6.800;2023-12-20T00:19:55;11.70;;;6.90;;
17604;SDS011;8921;50.964;6.800;2023-12-20T00:22:24;11.30;;;8.20;;
17604;SDS011;8921;50.964;6.800;2023-12-20T00:24:52;10.77;;;7.30;;
17604;SDS011;8921;50.964;6.800;2023-12-20T00:27:20;11.53;;;7.10;;
17604;SDS011;8921;50.964;6.800;2023-12-20T00:29:49;13.83;;;8.07;;
17604;SDS011;8921;50.964;6.800;2023-12-20T00:32:17;12.40;;;7.40;;
17604;SDS011;8921;50.964;6.800;2023-12-20T00:34:45;12.33;;;8.00;;
17604;SDS011;8921;50.964;6.800;2023-12-20T00:37:13;12.30;;;7.40;;
17604;SDS011;8921;50.964;6.800;2023-12-20T00:39:42;13.10;;;7.80;;
17604;SDS011;8921;50.964;6.800;2023-12-20T00:42:10;14.10;;;8.50;;
17604;SDS011;8921;50.964;6.800;2023-12-20T00:44:38;13.33;;;8.00;;
17604;SDS011;8921;50.964;6.800;2023-12-20T00:47:07;11.83;;;6.90;;
17604;SDS011;8921;50.964;6.800;2023-12-20T00:49:35;12.27;;;7.10;;
17604;SDS011;8921;50.964;6.800;2023-12-20T00:52:03;11.20;;;6.47;;
17604;SDS011;8921;50.964;6.800;2023-12-20T00:54:32;11.67;;;6.87;;
17604;SDS011;8921;50.964;6.800;2023-12-20T00:57:00;10.20;;;6.47;;
17604;SDS011;8921;50.964;6.800;2023-12-20T00:59:28;11.17;;;6.83;;
17604;SDS011;8921;50.964;6.800;2023-12-20T01:01:56;11.90;;;6.90;;
17604;SDS011;8921;50.964;6.800;2023-12-20T01:04:25;12.90;;;6.43;;
17604;SDS011;8921;50.964;6.800;2023-12-20T01:06:53;10.47;;;6.97;;
17604;SDS011;8921;50.964;6.800;2023-12-20T01:09:21;14.00;;;7.40;;
17604;SDS011;8921;50.964;6.800;2023-12-20T01:11:50;13.40;;;6.77;;
17604;SDS011;8921;50.964;6.800;2023-12-20T01:14:18;14.20;;;7.60;;
17604;SDS011;8921;50.964;6.800;2023-12-20T01:16:46;13.27;;;7.13;;
17604;SDS011;8921;50.964;6.800;2023-12-20T01:19:14;13.13;;;8.10;;
17604;SDS011;8921;50.964;6.800;2023-12-20T01:21:43;15.70;;;8.47;;
17604;SDS011;8921;50.964;6.800;2023-12-20T01:24:11;12.60;;;7.80;;
17604;SDS011;8921;50.964;6.800;2023-12-20T01:26:39;15.43;;;8.87;;
17604;SDS011;8921;50.964;6.800;2023-12-20T01:29:08;17.97;;;10.97;;
17604;SDS011;8921;50.964;6.800;2023-12-20T01:31:36;23.43;;;12.00;;
17604;SDS011;8921;50.964;6.800;2023-12-20T01:34:04;26.87;;;14.07;;
17604;SDS011;8921;50.964;6.800;2023-12-20T01:36:32;23.00;;;13.53;;
17604;SDS011;8921;50.964;6.800;2023-12-20T01:39:01;34.03;;;15.47;;
17604;SDS011;8921;50.964;6.800;2023-12-20T01:41:29;23.93;;;13.50;;
17604;SDS011;8921;50.964;6.800;2023-12-20T01:43:57;22.07;;;12.80;;
17604;SDS011;8921;50.964;6.800;2023-12-20T01:46:25;18.03;;;11.80;;
17604;SDS011;8921;50.964;6.800;2023-12-20T01:48:54;16.10;;;11.40;;
17604;SDS011;8921;50.964;6.800;2023-12-20T01:51:22;18.23;;;11.20;;
17604;SDS011;8921;50.964;6.800;2023-12-20T01:53:50;17.50;;;10.43;;
17604;SDS011;8921;50.964;6.800;2023-12-20T01:56:18;17.60;;;10.97;;
17604;SDS011;8921;50.964;6.800;2023-12-20T01:58:47;20.70;;;11.70;;
17604;SDS011;8921;50.964;6.800;2023-12-20T02:01:15;18.53;;;8.67;;
17604;SDS011;8921;50.964;6.800;2023-12-20T02:03:43;17.13;;;8.27;;
17604;SDS011;8921;50.964;6.800;2023-12-20T02:06:12;12.80;;;6.70;;
17604;SDS011;8921;50.964;6.800;2023-12-20T02:08:40;18.07;;;7.17;;
17604;SDS011;8921;50.964;6.800;2023-12-20T02:11:08;15.80;;;5.80;;
17604;SDS011;8921;50.964;6.800;2023-12-20T02:13:36;14.00;;;5.10;;
17604;SDS011;8921;50.964;6.800;2023-12-20T02:16:05;14.23;;;5.90;;
17604;SDS011;8921;50.964;6.800;2023-12-20T02:18:33;19.47;;;6.50;;
17604;SDS011;8921;50.964;6.800;2023-12-20T02:21:03;19.83;;;7.40;;
17604;SDS011;8921;50.964;6.800;2023-12-20T02:23:30;14.07;;;6.57;;
17604;SDS011;8921;50.964;6.800;2023-12-20T02:25:58;20.23;;;7.23;;
17604;SDS011;8921;50.964;6.800;2023-12-20T02:28:26;16.37;;;5.60;;
17604;SDS011;8921;50.964;6.800;2023-12-20T02:30:54;13.10;;;5.00;;
17604;SDS011;8921;50.964;6.800;2023-12-20T02:33:23;14.27;;;3.87;;
17604;SDS011;8921;50.964;6.800;2023-12-20T02:35:51;19.93;;;5.30;;
17604;SDS011;8921;50.964;6.800;2023-12-20T02:38:19;17.23;;;4.63;;
17604;SDS011;8921;50.964;6.800;2023-12-20T02:40:47;19.87;;;8.63;;
17604;SDS011;8921;50.964;6.800;2023-12-20T02:43:16;21.47;;;5.47;;
17604;SDS011;8921;50.964;6.800;2023-12-20T02:45:44;11.53;;;3.77;;
17604;SDS011;8921;50.964;6.800;2023-12-20T02:48:12;19.10;;;5.10;;
17604;SDS011;8921;50.964;6.800;2023-12-20T02:50:41;30.97;;;5.27;;
17604;SDS011;8921;50.964;6.800;2023-12-20T02:53:09;15.40;;;5.33;;
17604;SDS011;8921;50.964;6.800;2023-12-20T02:55:37;13.03;;;4.57;;
17604;SDS011;8921;50.964;6.800;2023-12-20T02:58:05;13.07;;;5.20;;
17604;SDS011;8921;50.964;6.800;2023-12-20T03:00:34;13.80;;;4.40;;
17604;SDS011;8921;50.964;6.800;2023-12-20T03:03:02;10.50;;;4.23;;
17604;SDS011;8921;50.964;6.800;2023-12-20T03:05:30;25.23;;;3.60;;
17604;SDS011;8921;50.964;6.800;2023-12-20T03:07:59;9.87;;;4.30;;
17604;SDS011;8921;50.964;6.800;2023-12-20T03:10:27;14.80;;;4.07;;
17604;SDS011;8921;50.964;6.800;2023-12-20T03:12:55;17.53;;;4.40;;
17604;SDS011;8921;50.964;6.800;2023-12-20T03:15:23;14.33;;;4.30;;
17604;SDS011;8921;50.964;6.800;2023-12-20T03:17:52;14.40;;;4.00;;
17604;SDS011;8921;50.964;6.800;2023-12-20T03:20:20;13.67;;;4.03;;
17604;SDS011;8921;50.964;6.800;2023-12-20T03:22:48;11.90;;;3.30;;
17604;SDS011;8921;50.964;6.800;2023-12-20T03:25:16;10.90;;;4.10;;
17604;SDS011;8921;50.964;6.800;2023-12-20T03:27:45;9.10;;;3.70;;
17604;SDS011;8921;50.964;6.800;2023-12-20T03:30:13;12.23;;;3.60;;
17604;SDS011;8921;50.964;6.800;2023-12-20T03:32:41;17.90;;;4.00;;
17604;SDS011;8921;50.964;6.800;2023-12-20T03:35:10;10.13;;;3.97;;
17604;SDS011;8921;50.964;6.800;2023-12-20T03:37:38;22.43;;;4.43;;
17604;SDS011;8921;50.964;6.800;2023-12-20T03:40:06;12.43;;;3.90;;
17604;SDS011;8921;50.964;6.800;2023-12-20T03:42:35;17.90;;;4.50;;
17604;SDS011;8921;50.964;6.800;2023-12-20T03:45:03;17.97;;;4.63;;
17604;SDS011;8921;50.964;6.800;2023-12-20T03:47:31;12.70;;;4.80;;
17604;SDS011;8921;50.964;6.800;2023-12-20T03:49:59;12.37;;;3.70;;
17604;SDS011;8921;50.964;6.800;2023-12-20T03:52:28;12.93;;;4.70;;
17604;SDS011;8921;50.964;6.800;2023-12-20T03:54:56;17.87;;;4.23;;
17604;SDS011;8921;50.964;6.800;2023-12-20T03:57:24;17.93;;;5.50;;
17604;SDS011;8921;50.964;6.800;2023-12-20T03:59:53;15.60;;;4.30;;
17604;SDS011;8921;50.964;6.800;2023-12-20T04:02:21;16.37;;;6.17;;
17604;SDS011;8921;50.964;6.800;2023-12-20T04:04:49;16.47;;;6.40;;
17604;SDS011;8921;50.964;6.800;2023-12-20T04:07:17;23.97;;;5.27;;
17604;SDS011;8921;50.964;6.800;2023-12-20T04:09:46;15.97;;;5.10;;
17604;SDS011;8921;50.964;6.800;2023-12-20T04:12:14;17.27;;;5.27;;
17604;SDS011;8921;50.964;6.800;2023-12-20T04:14:42;19.27;;;4.37;;
17604;SDS011;8921;50.964;6.800;2023-12-20T04:17:11;15.67;;;5.03;;
17604;SDS011;8921;50.964;6.800;2023-12-20T04:19:39;16.13;;;4.73;;
17604;SDS011;8921;50.964;6.800;2023-12-20T04:22:07;18.47;;;5.73;;
17604;SDS011;8921;50.964;6.800;2023-12-20T04:24:35;11.80;;;4.67;;
17604;SDS011;8921;50.964;6.800;2023-12-20T04:27:04;14.13;;;5.10;;
17604;SDS011;8921;50.964;6.800;2023-12-20T04:29:32;16.33;;;4.23;;
17604;SDS011;8921;50.964;6.800;2023-12-20T04:32:00;12.23;;;4.60;;
17604;SDS011;8921;50.964;6.800;2023-12-20T04:34:29;19.77;;;5.23;;
17604;SDS011;8921;50.964;6.800;2023-12-20T04:36:57;14.10;;;4.97;;
17604;SDS011;8921;50.964;6.800;2023-12-20T04:39:25;20.03;;;5.50;;
17604;SDS011;8921;50.964;6.800;2023-12-20T04:41:53;20.00;;;5.97;;
17604;SDS011;8921;50.964;6.800;2023-12-20T04:44:22;25.10;;;6.20;;
17604;SDS011;8921;50.964;6.800;2023-12-20T04:46:50;14.13;;;6.53;;
17604;SDS011;8921;50.964;6.800;2023-12-20T04:49:18;13.13;;;5.60;;
17604;SDS011;8921;50.964;6.800;2023-12-20T04:51:47;15.70;;;5.20;;
17604;SDS011;8921;50.964;6.800;2023-12-20T04:54:15;17.23;;;5.10;;
17604;SDS011;8921;50.964;6.800;2023-12-20T04:56:43;14.20;;;5.10;;
17604;SDS011;8921;50.964;6.800;2023-12-20T04:59:11;11.70;;;5.87;;
17604;SDS011;8921;50.964;6.800;2023-12-20T05:01:40;19.50;;;8.33;;
17604;SDS011;8921;50.964;6.800;2023-12-20T05:04:08;15.53;;;6.00;;
17604;SDS011;8921;50.964;6.800;2023-12-20T05:06:36;15.60;;;5.30;;
17604;SDS011;8921;50.964;6.800;2023-12-20T05:09:04;14.87;;;5.00;;
17604;SDS011;8921;50.964;6.800;2023-12-20T05:11:33;20.53;;;7.30;;
17604;SDS011;8921;50.964;6.800;2023-12-20T05:14:01;14.03;;;4.87;;
17604;SDS011;8921;50.964;6.800;2023-12-20T05:16:29;12.53;;;5.10;;
17604;SDS011;8921;50.964;6.800;2023-12-20T05:18:58;18.23;;;5.77;;
17604;SDS011;8921;50.964;6.800;2023-12-20T05:21:26;15.10;;;5.30;;
17604;SDS011;8921;50.964;6.800;2023-12-20T05:23:54;17.93;;;6.40;;
17604;SDS011;8921;50.964;6.800;2023-12-20T05:26:22;11.13;;;4.80;;
17604;SDS011;8921;50.964;6.800;2023-12-20T05:28:51;16.43;;;6.63;;
17604;SDS011;8921;50.964;6.800;2023-12-20T05:31:19;18.47;;;5.27;;
17604;SDS011;8921;50.964;6.800;2023-12-20T05:33:47;21.20;;;9.03;;
17604;SDS011;8921;50.964;6.800;2023-12-20T05:36:15;12.67;;;5.10;;
17604;SDS011;8921;50.964;6.800;2023-12-20T05:38:44;21.53;;;5.53;;
17604;SDS011;8921;50.964;6.800;2023-12-20T05:41:12;17.07;;;7.10;;
17604;SDS011;8921;50.964;6.800;2023-12-20T05:43:40;12.73;;;6.37;;
17604;SDS011;8921;50.964;6.800;2023-12-20T05:46:11;20.70;;;6.87;;
17604;SDS011;8921;50.964;6.800;2023-12-20T05:48:40;12.33;;;5.30;;
17604;SDS011;8921;50.964;6.800;2023-12-20T05:51:11;15.27;;;4.73;;
17604;SDS011;8921;50.964;6.800;2023-12-20T05:53:36;15.87;;;5.30;;
17604;SDS011;8921;50.964;6.800;2023-12-20T05:56:05;17.53;;;5.23;;
17604;SDS011;8921;50.964;6.800;2023-12-20T05:58:33;15.47;;;5.30;;
17604;SDS011;8921;50.964;6.800;2023-12-20T06:01:04;17.83;;;5.70;;
17604;SDS011;8921;50.964;6.800;2023-12-20T06:03:32;22.07;;;6.40;;
17604;SDS011;8921;50.964;6.800;2023-12-20T06:06:05;16.00;;;5.87;;
17604;SDS011;8921;50.964;6.800;2023-12-20T06:08:32;12.80;;;5.33;;
17604;SDS011;8921;50.964;6.800;2023-12-20T06:11:00;19.10;;;4.80;;
17604;SDS011;8921;50.964;6.800;2023-12-20T06:13:29;27.60;;;5.63;;
17604;SDS011;8921;50.964;6.800;2023-12-20T06:15:57;15.67;;;4.90;;
17604;SDS011;8921;50.964;6.800;2023-12-20T06:18:25;18.53;;;5.97;;
17604;SDS011;8921;50.964;6.800;2023-12-20T06:20:54;13.53;;;5.37;;
17604;SDS011;8921;50.964;6.800;2023-12-20T06:23:22;18.37;;;6.57;;
17604;SDS011;8921;50.964;6.800;2023-12-20T06:25:50;17.00;;;5.30;;
17604;SDS011;8921;50.964;6.800;2023-12-20T06:28:19;15.50;;;6.23;;
17604;SDS011;8921;50.964;6.800;2023-12-20T06:30:47;12.63;;;4.70;;
17604;SDS011;8921;50.964;6.800;2023-12-20T06:33:15;14.37;;;4.67;;
17604;SDS011;8921;50.964;6.800;2023-12-20T06:35:43;12.40;;;4.40;;
17604;SDS011;8921;50.964;6.800;2023-12-20T06:38:12;14.90;;;5.03;;
17604;SDS011;8921;50.964;6.800;2023-12-20T06:40:40;14.77;;;4.93;;
17604;SDS011;8921;50.964;6.800;2023-12-20T06:43:09;18.70;;;4.53;;
17604;SDS011;8921;50.964;6.800;2023-12-20T06:45:37;14.20;;;5.00;;
17604;SDS011;8921;50.964;6.800;2023-12-20T06:48:05;20.87;;;5.47;;
17604;SDS011;8921;50.964;6.800;2023-12-20T06:50:34;22.00;;;3.93;;
17604;SDS011;8921;50.964;6.800;2023-12-20T06:53:02;12.67;;;4.97;;
17604;SDS011;8921;50.964;6.800;2023-12-20T06:55:31;12.73;;;4.33;;
17604;SDS011;8921;50.964;6.800;2023-12-20T06:58:00;20.13;;;4.80;;
17604;SDS011;8921;50.964;6.800;2023-12-20T07:00:27;16.47;;;5.27;;
17604;SDS011;8921;50.964;6.800;2023-12-20T07:02:56;18.33;;;5.53;;
17604;SDS011;8921;50.964;6.800;2023-12-20T07:05:24;16.87;;;4.63;;
17604;SDS011;8921;50.964;6.800;2023-12-20T07:07:52;8.43;;;4.23;;
17604;SDS011;8921;50.964;6.800;2023-12-20T07:10:23;16.33;;;4.90;;
17604;SDS011;8921;50.964;6.800;2023-12-20T07:12:58;14.40;;;5.00;;
17604;SDS011;8921;50.964;6.800;2023-12-20T07:15:27;11.50;;;4.03;;
17604;SDS011;8921;50.964;6.800;2023-12-20T07:17:55;25.03;;;10.43;;
17604;SDS011;8921;50.964;6.800;2023-12-20T07:20:23;16.57;;;5.20;;
17604;SDS011;8921;50.964;6.800;2023-12-20T07:22:52;24.17;;;5.77;;
17604;SDS011;8921;50.964;6.800;2023-12-20T07:25:20;15.80;;;5.67;;
17604;SDS011;8921;50.964;6.800;2023-12-20T07:27:48;21.13;;;5.57;;
17604;SDS011;8921;50.964;6.800;2023-12-20T07:30:17;16.10;;;6.43;;
17604;SDS011;8921;50.964;6.800;2023-12-20T07:32:48;15.73;;;5.53;;
17604;SDS011;8921;50.964;6.800;2023-12-20T07:35:17;14.03;;;4.90;;
17604;SDS011;8921;50.964;6.800;2023-12-20T07:37:45;29.90;;;7.67;;
17604;SDS011;8921;50.964;6.800;2023-12-20T07:40:13;19.33;;;6.17;;
17604;SDS011;8921;50.964;6.800;2023-12-20T07:42:42;13.83;;;6.50;;
17604;SDS011;8921;50.964;6.800;2023-12-20T07:45:10;13.87;;;6.03;;
17604;SDS011;8921;50.964;6.800;2023-12-20T07:47:38;18.63;;;8.73;;
17604;SDS011;8921;50.964;6.800;2023-12-20T07:50:07;18.00;;;8.80;;
17604;SDS011;8921;50.964;6.800;2023-12-20T07:52:35;15.33;;;6.63;;
17604;SDS011;8921;50.964;6.800;2023-12-20T07:55:03;20.70;;;5.67;;
17604;SDS011;8921;50.964;6.800;2023-12-20T07:57:32;13.80;;;6.53;;
17604;SDS011;8921;50.964;6.800;2023-12-20T08:00:00;14.50;;;6.20;;
17604;SDS011;8921;50.964;6.800;2023-12-20T08:02:28;23.23;;;6.07;;
17604;SDS011;8921;50.964;6.800;2023-12-20T08:04:56;22.20;;;6.73;;
17604;SDS011;8921;50.964;6.800;2023-12-20T08:07:26;18.27;;;6.30;;
17604;SDS011;8921;50.964;6.800;2023-12-20T08:09:54;17.20;;;6.40;;
17604;SDS011;8921;50.964;6.800;2023-12-20T08:12:23;20.40;;;5.90;;
17604;SDS011;8921;50.964;6.800;2023-12-20T08:14:51;23.23;;;7.00;;
17604;SDS011;8921;50.964;6.800;2023-12-20T08:17:19;17.90;;;5.80;;
17604;SDS011;8921;50.964;6.800;2023-12-20T08:19:47;13.80;;;6.13;;
17604;SDS011;8921;50.964;6.800;2023-12-20T08:22:16;20.60;;;6.07;;
17604;SDS011;8921;50.964;6.800;2023-12-20T08:24:44;14.30;;;7.00;;
17604;SDS011;8921;50.964;6.800;2023-12-20T08:27:12;16.23;;;6.17;;
17604;SDS011;8921;50.964;6.800;2023-12-20T08:29:41;18.20;;;8.40;;
17604;SDS011;8921;50.964;6.800;2023-12-20T08:32:09;18.87;;;7.00;;
17604;SDS011;8921;50.964;6.800;2023-12-20T08:34:37;18.13;;;6.30;;
17604;SDS011;8921;50.964;6.800;2023-12-20T08:37:05;17.30;;;6.17;;
17604;SDS011;8921;50.964;6.800;2023-12-20T08:39:34;19.63;;;7.07;;
17604;SDS011;8921;50.964;6.800;2023-12-20T08:42:02;16.30;;;5.37;;
17604;SDS011;8921;50.964;6.800;2023-12-20T08:44:30;14.50;;;5.63;;
17604;SDS011;8921;50.964;6.800;2023-12-20T08:46:59;19.97;;;7.60;;
17604;SDS011;8921;50.964;6.800;2023-12-20T08:49:27;19.03;;;8.13;;
17604;SDS011;8921;50.964;6.800;2023-12-20T08:51:55;11.50;;;5.47;;
17604;SDS011;8921;50.964;6.800;2023-12-20T08:54:23;13.20;;;4.73;;
17604;SDS011;8921;50.964;6.800;2023-12-20T08:56:52;16.63;;;4.83;;
17604;SDS011;8921;50.964;6.800;2023-12-20T08:59:20;16.57;;;4.90;;
17604;SDS011;8921;50.964;6.800;2023-12-20T09:01:48;18.20;;;5.83;;
17604;SDS011;8921;50.964;6.800;2023-12-20T09:04:16;17.77;;;4.60;;
17604;SDS011;8921;50.964;6.800;2023-12-20T09:06:45;17.70;;;4.40;;
17604;SDS011;8921;50.964;6.800;2023-12-20T09:09:13;13.57;;;5.07;;
17604;SDS011;8921;50.964;6.800;2023-12-20T09:11:41;24.97;;;5.90;;
17604;SDS011;8921;50.964;6.800;2023-12-20T09:14:10;15.07;;;4.67;;
17604;SDS011;8921;50.964;6.800;2023-12-20T09:16:38;21.97;;;6.87;;
17604;SDS011;8921;50.964;6.800;2023-12-20T09:19:06;15.80;;;5.93;;
17604;SDS011;8921;50.964;6.800;2023-12-20T09:21:35;19.00;;;5.70;;
17604;SDS011;8921;50.964;6.800;2023-12-20T09:24:03;15.33;;;4.47;;
17604;SDS011;8921;50.964;6.800;2023-12-20T09:26:31;19.50;;;4.60;;
17604;SDS011;8921;50.964;6.800;2023-12-20T09:28:59;16.10;;;5.10;;
17604;SDS011;8921;50.964;6.800;2023-12-20T09:31:28;12.13;;;5.27;;
17604;SDS011;8921;50.964;6.800;2023-12-20T09:33:56;12.13;;;4.53;;
17604;SDS011;8921;50.964;6.800;2023-12-20T09:36:24;13.33;;;4.67;;
17604;SDS011;8921;50.964;6.800;2023-12-20T09:38:53;16.87;;;4.57;;
17604;SDS011;8921;50.964;6.800;2023-12-20T09:41:21;12.73;;;4.70;;
17604;SDS011;8921;50.964;6.800;2023-12-20T09:43:49;21.13;;;6.40;;
17604;SDS011;8921;50.964;6.800;2023-12-20T09:46:17;18.63;;;4.93;;
17604;SDS011;8921;50.964;6.800;2023-12-20T09:48:46;10.20;;;4.50;;
17604;SDS011;8921;50.964;6.800;2023-12-20T09:51:14;9.70;;;4.50;;
17604;SDS011;8921;50.964;6.800;2023-12-20T09:53:42;16.63;;;4.50;;
17604;SDS011;8921;50.964;6.800;2023-12-20T09:56:11;15.73;;;4.63;;
17604;SDS011;8921;50.964;6.800;2023-12-20T09:58:39;13.57;;;4.60;;
17604;SDS011;8921;50.964;6.800;2023-12-20T10:01:07;15.07;;;4.00;;
17604;SDS011;8921;50.964;6.800;2023-12-20T10:03:35;15.70;;;5.00;;
17604;SDS011;8921;50.964;6.800;2023-12-20T10:06:04;19.03;;;4.77;;
17604;SDS011;8921;50.964;6.800;2023-12-20T10:08:32;22.73;;;5.77;;
17604;SDS011;8921;50.964;6.800;2023-12-20T10:11:00;11.73;;;4.17;;
17604;SDS011;8921;50.964;6.800;2023-12-20T10:13:29;14.40;;;4.80;;
17604;SDS011;8921;50.964;6.800;2023-12-20T10:15:57;10.20;;;4.03;;
17604;SDS011;8921;50.964;6.800;2023-12-20T10:18:25;21.40;;;5.70;;
17604;SDS011;8921;50.964;6.800;2023-12-20T10:20:53;17.60;;;4.20;;
17604;SDS011;8921;50.964;6.800;2023-12-20T10:23:22;9.57;;;3.40;;
17604;SDS011;8921;50.964;6.800;2023-12-20T10:25:56;17.80;;;4.63;;
17604;SDS011;8921;50.964;6.800;2023-12-20T10:28:24;13.30;;;4.10;;
17604;SDS011;8921;50.964;6.800;2023-12-20T10:30:55;11.60;;;4.20;;
17604;SDS011;8921;50.964;6.800;2023-12-20T10:33:24;12.20;;;3.90;;
17604;SDS011;8921;50.964;6.800;2023-12-20T10:35:55;12.53;;;4.83;;
17604;SDS011;8921;50.964;6.800;2023-12-20T10:38:23;9.47;;;3.10;;
17604;SDS011;8921;50.964;6.800;2023-12-20T10:40:56;17.73;;;4.13;;
17604;SDS011;8921;50.964;6.800;2023-12-20T10:43:22;15.70;;;4.87;;
17604;SDS011;8921;50.964;6.800;2023-12-20T10:45:51;11.33;;;3.97;;
17604;SDS011;8921;50.964;6.800;2023-12-20T10:48:19;22.27;;;5.63;;
17604;SDS011;8921;50.964;6.800;2023-12-20T10:50:47;12.87;;;4.10;;
17604;SDS011;8921;50.964;6.800;2023-12-20T10:53:16;10.33;;;3.90;;
17604;SDS011;8921;50.964;6.800;2023-12-20T10:55:44;22.33;;;5.00;;
17604;SDS011;8921;50.964;6.800;2023-12-20T10:58:12;12.53;;;4.90;;
17604;SDS011;8921;50.964;6.800;2023-12-20T11:00:40;10.77;;;4.23;;
17604;SDS011;8921;50.964;6.800;2023-12-20T11:03:09;11.43;;;4.53;;
17604;SDS011;8921;50.964;6.800;2023-12-20T11:08:39;13.93;;;3.93;;
17604;SDS011;8921;50.964;6.800;2023-12-20T11:11:21;17.07;;;5.30;;
17604;SDS011;8921;50.964;6.800;2023-12-20T11:13:55;14.03;;;4.67;;
17604;SDS011;8921;50.964;6.800;2023-12-20T11:16:22;10.27;;;3.60;;
17604;SDS011;8921;50.964;6.800;2023-12-20T11:18:51;10.77;;;3.77;;
17604;SDS011;8921;50.964;6.800;2023-12-20T11:21:19;11.90;;;4.10;;
17604;SDS011;8921;50.964;6.800;2023-12-20T11:23:47;9.30;;;3.20;;
17604;SDS011;8921;50.964;6.800;2023-12-20T11:26:15;17.03;;;6.00;;
17604;SDS011;8921;50.964;6.800;2023-12-20T11:28:43;17.70;;;5.00;;
17604;SDS011;8921;50.964;6.800;2023-12-20T11:31:12;13.87;;;4.10;;
17604;SDS011;8921;50.964;6.800;2023-12-20T11:33:40;14.87;;;5.10;;
17604;SDS011;8921;50.964;6.800;2023-12-20T11:36:14;12.37;;;3.90;;
17604;SDS011;8921;50.964;6.800;2023-12-20T11:38:57;8.90;;;4.37;;
17604;SDS011;8921;50.964;6.800;2023-12-20T11:41:26;14.07;;;3.80;;
17604;SDS011;8921;50.964;6.800;2023-12-20T11:43:54;12.00;;;5.27;;
17604;SDS011;8921;50.964;6.800;2023-12-20T11:46:22;10.33;;;3.83;;
17604;SDS011;8921;50.964;6.800;2023-12-20T11:48:50;11.20;;;3.93;;
17604;SDS011;8921;50.964;6.800;2023-12-20T11:51:19;10.17;;;3.33;;
17604;SDS011;8921;50.964;6.800;2023-12-20T11:53:51;13.73;;;4.70;;
17604;SDS011;8921;50.964;6.800;2023-12-20T11:56:15;14.37;;;4.50;;
17604;SDS011;8921;50.964;6.800;2023-12-20T11:58:43;12.53;;;4.50;;
17604;SDS011;8921;50.964;6.800;2023-12-20T12:01:12;17.10;;;5.10;;
17604;SDS011;8921;50.964;6.800;2023-12-20T12:03:40;12.20;;;3.77;;
17604;SDS011;8921;50.964;6.800;2023-12-20T12:06:08;14.63;;;3.97;;
17604;SDS011;8921;50.964;6.800;2023-12-20T12:08:37;15.67;;;4.93;;
17604;SDS011;8921;50.964;6.800;2023-12-20T12:11:05;15.37;;;4.03;;
17604;SDS011;8921;50.964;6.800;2023-12-20T12:13:34;16.87;;;4.63;;
17604;SDS011;8921;50.964;6.800;2023-12-20T12:16:02;17.63;;;5.63;;
17604;SDS011;8921;50.964;6.800;2023-12-20T12:18:30;15.93;;;5.40;;
17604;SDS011;8921;50.964;6.800;2023-12-20T12:21:02;13.47;;;4.87;;
17604;SDS011;8921;50.964;6.800;2023-12-20T12:23:30;15.37;;;4.60;;
17604;SDS011;8921;50.964;6.800;2023-12-20T12:25:58;12.50;;;4.27;;
17604;SDS011;8921;50.964;6.800;2023-12-20T12:28:27;14.00;;;4.77;;
17604;SDS011;8921;50.964;6.800;2023-12-20T12:30:58;18.43;;;4.93;;
17604;SDS011;8921;50.964;6.800;2023-12-20T12:33:26;12.10;;;4.83;;
17604;SDS011;8921;50.964;6.800;2023-12-20T12:35:54;15.20;;;4.80;;
17604;SDS011;8921;50.964;6.800;2023-12-20T12:38:24;14.60;;;4.90;;
17604;SDS011;8921;50.964;6.800;2023-12-20T12:40:51;17.63;;;4.37;;
17604;SDS011;8921;50.964;6.800;2023-12-20T12:43:19;16.47;;;4.40;;
17604;SDS011;8921;50.964;6.800;2023-12-20T12:45:47;14.43;;;4.73;;
17604;SDS011;8921;50.964;6.800;2023-12-20T12:48:16;13.53;;;5.17;;
17604;SDS011;8921;50.964;6.800;2023-12-20T12:50:45;14.83;;;4.17;;
17604;SDS011;8921;50.964;6.800;2023-12-20T12:53:15;13.63;;;4.60;;
17604;SDS011;8921;50.964;6.800;2023-12-20T12:55:43;15.77;;;4.70;;
17604;SDS011;8921;50.964;6.800;2023-12-20T12:58:11;14.07;;;4.00;;
17604;SDS011;8921;50.964;6.800;2023-12-20T13:00:40;17.30;;;4.80;;
17604;SDS011;8921;50.964;6.800;2023-12-20T13:03:08;14.77;;;4.63;;
17604;SDS011;8921;50.964;6.800;2023-12-20T13:05:36;11.87;;;4.80;;
17604;SDS011;8921;50.964;6.800;2023-12-20T13:08:05;14.67;;;6.17;;
17604;SDS011;8921;50.964;6.800;2023-12-20T13:10:33;17.13;;;6.87;;
17604;SDS011;8921;50.964;6.800;2023-12-20T13:13:01;15.43;;;5.83;;
17604;SDS011;8921;50.964;6.800;2023-12-20T13:15:29;15.47;;;4.90;;
17604;SDS011;8921;50.964;6.800;2023-12-20T13:17:58;15.13;;;4.93;;
17604;SDS011;8921;50.964;6.800;2023-12-20T13:20:26;14.00;;;5.10;;
17604;SDS011;8921;50.964;6.800;2023-12-20T13:22:54;11.23;;;4.40;;
17604;SDS011;8921;50.964;6.800;2023-12-20T13:25:23;11.50;;;4.37;;
17604;SDS011;8921;50.964;6.800;2023-12-20T13:27:51;13.23;;;4.73;;
17604;SDS011;8921;50.964;6.800;2023-12-20T13:30:19;16.43;;;4.37;;
17604;SDS011;8921;50.964;6.800;2023-12-20T13:32:47;14.77;;;4.17;;
17604;SDS011;8921;50.964;6.800;2023-12-20T13:35:16;16.17;;;6.33;;
17604;SDS011;8921;50.964;6.800;2023-12-20T13:37:44;9.80;;;4.67;;
17604;SDS011;8921;50.964;6.800;2023-12-20T13:40:12;21.53;;;6.23;;
17604;SDS011;8921;50.964;6.800;2023-12-20T13:42:40;19.07;;;6.90;;
17604;SDS011;8921;50.964;6.800;2023-12-20T13:45:09;12.43;;;4.10;;
17604;SDS011;8921;50.964;6.800;2023-12-20T13:47:37;12.93;;;3.90;;
17604;SDS011;8921;50.964;6.800;2023-12-20T13:50:05;20.97;;;6.77;;
17604;SDS011;8921;50.964;6.800;2023-12-20T13:52:34;10.43;;;4.17;;
17604;SDS011;8921;50.964;6.800;2023-12-20T13:55:02;10.20;;;4.40;;
17604;SDS011;8921;50.964;6.800;2023-12-20T13:57:31;14.50;;;4.47;;
17604;SDS011;8921;50.964;6.800;2023-12-20T13:59:59;11.73;;;4.70;;
17604;SDS011;8921;50.964;6.800;2023-12-20T14:02:27;12.07;;;5.33;;
17604;SDS011;8921;50.964;6.800;2023-12-20T14:04:55;13.63;;;4.87;;
17604;SDS011;8921;50.964;6.800;2023-12-20T14:07:24;11.73;;;4.50;;
17604;SDS011;8921;50.964;6.800;2023-12-20T14:09:52;18.63;;;5.00;;
17604;SDS011;8921;50.964;6.800;2023-12-20T14:12:20;13.77;;;4.50;;
17604;SDS011;8921;50.964;6.800;2023-12-20T14:14:49;11.27;;;4.43;;
17604;SDS011;8921;50.964;6.800;2023-12-20T14:17:17;14.93;;;4.73;;
17604;SDS011;8921;50.964;6.800;2023-12-20T14:19:45;14.93;;;4.23;;
17604;SDS011;8921;50.964;6.800;2023-12-20T14:22:13;15.30;;;5.40;;
17604;SDS011;8921;50.964;6.800;2023-12-20T14:24:42;13.40;;;4.50;;
17604;SDS011;8921;50.964;6.800;2023-12-20T14:27:10;20.53;;;6.10;;
17604;SDS011;8921;50.964;6.800;2023-12-20T14:29:38;10.50;;;4.23;;
17604;SDS011;8921;50.964;6.800;2023-12-20T14:32:06;13.30;;;4.37;;
17604;SDS011;8921;50.964;6.800;2023-12-20T14:34:35;19.70;;;5.97;;
17604;SDS011;8921;50.964;6.800;2023-12-20T14:37:03;15.90;;;5.70;;
17604;SDS011;8921;50.964;6.800;2023-12-20T14:39:31;22.33;;;5.67;;
17604;SDS011;8921;50.964;6.800;2023-12-20T14:42:00;12.83;;;3.93;;
17604;SDS011;8921;50.964;6.800;2023-12-20T14:44:28;10.47;;;4.27;;
17604;SDS011;8921;50.964;6.800;2023-12-20T14:46:56;19.30;;;4.93;;
17604;SDS011;8921;50.964;6.800;2023-12-20T14:49:24;16.73;;;5.53;;
17604;SDS011;8921;50.964;6.800;2023-12-20T14:51:53;11.17;;;4.70;;
17604;SDS011;8921;50.964;6.800;2023-12-20T14:54:21;19.80;;;5.87;;
17604;SDS011;8921;50.964;6.800;2023-12-20T14:56:49;9.20;;;4.80;;